Terminal Aerodrome Forecast
Issued by NWS Corpus Christi, TX

Current Version | Previous Version | Text Only | Print | Product List | Glossary Off
Versions: 1 2 3 4 5 6 7 8 9 10 11 12

458
FTUS44 KCRP 252321
TAFCRP
TAF
KCRP 252321Z 2600/2624 11012KT P6SM SCT030 BKN150
     FM260700 14008KT P6SM VCSH BKN015 OVC100 PROB30 2609/2615 5SM
      TSRA BR OVC015CB
     FM261500 15012KT P6SM BKN030 OVC080
      TEMPO 2615/2619 5SM SHRA BR
     FM261900 12013G20KT P6SM SCT040 OVC120
      TEMPO 2619/2623 4SM TSRA BR OVC030CB=

USA.gov is the U.S. government's official web portal to all federal, state and local government web resources and services.